Time;durP1;ratioP1;P1;durP2;ratioP2;P2;SDS_P1;SDS_P2;PMS_P1;PMS_P2;Temp;Humidity;BMP_temperature;BMP_pressure;BME280_temperature;BME280_humidity;BME280_pressure;Samples;Min_cycle;Max_cycle;Signal;HPM_P1;HPM_P2
2022/03/09 00:02:16;;;;;;;;;64.50;48.50;;;;;13.99;35.87;101543.34;5104980;27;61848;-84
2022/03/09 00:04:42;;;;;;;;;67.00;49.75;;;;;13.96;35.83;101540.59;5106141;27;61914;-83
2022/03/09 00:07:07;;;;;;;;;67.00;49.75;;;;;13.94;36.38;101540.53;5105562;27;62171;-84
2022/03/09 00:09:32;;;;;;;;;70.25;43.50;;;;;13.91;35.78;101538.66;5103882;27;62082;-83
2022/03/09 00:11:58;;;;;;;;;66.50;51.00;;;;;13.90;36.34;101534.22;5105070;27;61909;-84
2022/03/09 00:14:24;;;;;;;;;63.25;48.50;;;;;13.89;36.56;101542.06;5104875;27;62020;-84
2022/03/09 00:16:50;;;;;;;;;69.50;48.50;;;;;13.85;36.41;101541.03;5106568;27;62199;-84
2022/03/09 00:19:16;;;;;;;;;66.25;45.25;;;;;13.84;36.60;101546.22;5103704;27;63607;-84
2022/03/09 00:21:42;;;;;;;;;56.50;42.75;;;;;13.80;36.23;101544.31;5106218;27;61759;-84
2022/03/09 00:24:07;;;;;;;;;62.25;46.75;;;;;13.75;36.69;101532.66;5106427;27;61712;-84
2022/03/09 00:26:33;;;;;;;;;61.75;48.50;;;;;13.76;36.92;101547.66;5104230;27;61829;-84
2022/03/09 00:28:58;;;;;;;;;68.25;48.25;;;;;13.72;36.73;101545.72;5103787;27;62179;-83
2022/03/09 00:31:24;;;;;;;;;70.50;49.50;;;;;13.65;36.70;101547.19;5106169;27;61811;-84
2022/03/09 00:33:49;;;;;;;;;63.00;47.00;;;;;13.65;37.26;101557.75;5104427;27;61885;-84
2022/03/09 00:36:14;;;;;;;;;71.00;50.00;;;;;13.65;36.90;101557.75;5106466;27;61990;-84
2022/03/09 00:38:40;;;;;;;;;72.75;52.75;;;;;13.64;36.98;101551.53;5104201;27;63525;-84
2022/03/09 00:41:06;;;;;;;;;72.00;54.50;;;;;13.62;37.34;101558.47;5105461;27;61738;-84
2022/03/09 00:43:31;;;;;;;;;74.50;49.50;;;;;13.61;37.43;101554.06;5105736;27;61712;-84
2022/03/09 00:45:57;;;;;;;;;75.50;53.00;;;;;13.59;37.45;101555.72;5104882;27;61799;-84
2022/03/09 00:48:22;;;;;;;;;67.25;50.00;;;;;13.56;37.69;101557.31;5104891;27;62775;-84
2022/03/09 00:50:48;;;;;;;;;62.00;48.50;;;;;13.54;37.49;101565.19;5105573;27;61750;-83
2022/03/09 00:53:13;;;;;;;;;75.00;49.25;;;;;13.52;37.72;101565.91;5105970;27;61735;-83
2022/03/09 00:55:39;;;;;;;;;74.50;54.75;;;;;13.49;38.01;101569.31;5104325;27;61680;-83
2022/03/09 00:58:05;;;;;;;;;68.50;51.50;;;;;13.46;38.17;101572.72;5104581;27;61755;-84
2022/03/09 01:00:31;;;;;;;;;79.50;54.25;;;;;13.45;38.32;101575.28;5103445;27;61963;-84
2022/03/09 01:02:56;;;;;;;;;78.25;52.25;;;;;13.43;38.04;101582.22;5103467;27;62081;-84
2022/03/09 01:05:22;;;;;;;;;73.00;53.25;;;;;13.41;38.38;101583.91;5105753;27;61837;-84
2022/03/09 01:07:47;;;;;;;;;68.50;53.75;;;;;13.38;38.32;101578.50;5104815;27;63147;-84
2022/03/09 01:10:13;;;;;;;;;75.00;55.00;;;;;13.38;38.49;101581.13;5104890;27;61942;-84
2022/03/09 01:12:39;;;;;;;;;65.00;51.50;;;;;13.34;38.15;101588.00;5105732;27;61882;-84
2022/03/09 01:15:05;;;;;;;;;69.00;51.00;;;;;13.31;37.84;101587.88;5121581;27;61882;-84
2022/03/09 01:17:31;;;;;;;;;62.25;49.25;;;;;13.32;38.11;101592.28;5104358;27;62978;-84
2022/03/09 01:19:57;;;;;;;;;70.25;49.50;;;;;13.33;38.37;101582.66;5105022;27;61959;-84
2022/03/09 01:22:22;;;;;;;;;76.50;54.25;;;;;13.32;38.61;101587.03;5105407;27;61988;-84
2022/03/09 01:24:48;;;;;;;;;72.75;53.25;;;;;13.31;38.95;101581.69;5105290;27;61886;-84
2022/03/09 01:27:14;;;;;;;;;67.00;49.00;;;;;13.27;38.91;101586.78;5103082;27;64961;-84
2022/03/09 01:29:39;;;;;;;;;74.75;51.00;;;;;13.26;39.06;101586.69;5103316;27;61644;-84
2022/03/09 01:32:05;;;;;;;;;68.25;51.50;;;;;13.24;38.74;101581.38;5104698;27;61726;-84
2022/03/09 01:34:31;;;;;;;;;73.25;53.00;;;;;13.21;38.92;101586.47;5104114;27;61830;-84
2022/03/09 01:36:57;;;;;;;;;68.00;47.25;;;;;13.20;39.16;101583.81;5104489;27;62774;-84
2022/03/09 01:39:23;;;;;;;;;61.50;48.00;;;;;13.19;39.28;101576.72;5103561;27;61842;-83
2022/03/09 01:41:48;;;;;;;;;67.75;52.25;;;;;13.19;39.41;101584.63;5104422;27;61976;-84
2022/03/09 01:44:22;;;;;;;;;68.50;50.25;;;;;13.17;39.37;101576.63;5103669;27;61936;-84
2022/03/09 01:46:49;;;;;;;;;67.25;50.25;;;;;13.15;39.23;101577.41;5102733;27;63636;-84
2022/03/09 01:49:16;;;;;;;;;67.50;51.00;;;;;13.11;39.43;101576.38;5103131;27;61804;-83
2022/03/09 01:51:43;;;;;;;;;76.75;54.00;;;;;13.10;39.30;101579.81;5105018;27;62020;-84
2022/03/09 01:54:09;;;;;;;;;63.25;49.25;;;;;13.08;39.41;101574.47;5103418;27;61852;-84
2022/03/09 01:56:36;;;;;;;;;63.50;49.75;;;;;13.07;39.51;101566.50;5102131;27;64153;-83
2022/03/09 01:59:05;;;;;;;;;69.00;49.00;;;;;13.05;39.90;101568.19;5103091;27;61755;-84
2022/03/09 02:01:31;;;;;;;;;67.75;52.00;;;;;13.01;40.03;101566.22;5102791;27;61773;-84
2022/03/09 02:03:58;;;;;;;;;67.25;51.00;;;;;13.00;39.87;101564.41;5104678;27;62105;-83
2022/03/09 02:06:24;;;;;;;;;71.00;53.00;;;;;12.99;39.96;101565.25;5104323;27;62931;-84
2022/03/09 02:11:34;;;;;;;;;73.00;51.25;;;;;12.95;40.19;101556.28;5104300;27;61833;-84
2022/03/09 02:14:00;;;;;;;;;81.25;51.50;;;;;12.93;39.99;101560.56;5104589;27;61734;-84
2022/03/09 02:16:27;;;;;;;;;71.00;49.33;;;;;12.93;40.04;101564.94;5103318;27;61881;-84
2022/03/09 02:18:52;;;;;;;;;68.25;47.75;;;;;12.89;40.22;101563.91;5104418;27;61810;-84
2022/03/09 02:21:19;;;;;;;;;63.25;47.50;;;;;12.89;40.43;101563.91;5102775;27;62146;-84
2022/03/09 02:23:46;;;;;;;;;67.00;52.00;;;;;12.87;40.66;101565.56;5103139;27;61780;-84
2022/03/09 02:26:12;;;;;;;;;55.50;39.00;;;;;12.85;40.62;101561.94;5101387;27;62182;-84
2022/03/09 02:28:39;;;;;;;;;72.00;53.50;;;;;12.84;40.28;101565.41;5104187;27;61878;-84
2022/03/09 02:31:05;;;;;;;;;67.75;50.75;;;;;12.80;40.59;101560.81;5103963;27;62083;-84
2022/03/09 02:33:30;;;;;;;;;68.00;48.25;;;;;12.77;40.71;101565.94;5102843;27;61790;-84
2022/03/09 02:35:55;;;;;;;;;70.50;51.50;;;;;12.73;40.66;101571.91;5102434;27;63234;-84
2022/03/09 02:38:21;;;;;;;;;67.00;49.25;;;;;12.72;40.88;101563.09;5104137;27;61729;-83
2022/03/09 02:40:46;;;;;;;;;65.00;51.50;;;;;12.71;40.89;101563.94;5102007;27;61992;-84
2022/03/09 02:43:12;;;;;;;;;65.00;47.75;;;;;12.71;40.95;101563.94;5137148;27;61765;-83
2022/03/09 02:45:38;;;;;;;;;69.50;48.50;;;;;12.69;41.19;101570.84;5102021;27;63741;-84
2022/03/09 02:48:03;;;;;;;;;64.50;49.00;;;;;12.67;41.13;101570.78;5102576;27;61782;-84
2022/03/09 02:50:29;;;;;;;;;66.75;50.00;;;;;12.65;41.35;101564.53;5102434;27;61929;-84
2022/03/09 02:52:54;;;;;;;;;61.75;47.50;;;;;12.64;41.30;101572.38;5103860;27;61808;-84
2022/03/09 02:55:20;;;;;;;;;65.25;49.75;;;;;12.62;41.46;101569.66;5102901;27;61811;-84
2022/03/09 02:57:45;;;;;;;;;61.50;47.50;;;;;12.62;41.54;101577.56;5102554;27;61818;-83
2022/03/09 03:00:12;;;;;;;;;62.75;46.75;;;;;12.61;41.95;101574.84;5102432;27;61889;-84
2022/03/09 03:02:38;;;;;;;;;62.50;47.50;;;;;12.59;41.82;101577.38;5104172;27;62164;-84
2022/03/09 03:05:05;;;;;;;;;50.50;39.25;;;;;12.58;42.02;101577.34;5101303;27;63764;-84
2022/03/09 03:07:30;;;;;;;;;57.50;46.50;;;;;12.55;42.64;101577.16;5102306;27;61769;-84
2022/03/09 03:09:56;;;;;;;;;64.50;47.50;;;;;12.54;42.72;101588.53;5103353;27;61698;-84
2022/03/09 03:12:22;;;;;;;;;65.50;49.25;;;;;12.54;42.73;101583.28;5103618;27;61680;-83
2022/03/09 03:14:47;;;;;;;;;55.00;46.00;;;;;12.54;42.76;101586.81;5103100;27;61995;-84
2022/03/09 03:17:13;;;;;;;;;65.75;48.25;;;;;12.54;42.84;101585.91;5103269;27;61700;-84
2022/03/09 03:19:38;;;;;;;;;61.25;45.00;;;;;12.52;42.75;101582.31;5102028;27;61878;-83
2022/03/09 03:22:04;;;;;;;;;68.00;47.25;;;;;12.50;42.89;101587.47;5103590;27;61885;-84
2022/03/09 03:24:30;;;;;;;;;56.00;42.00;;;;;12.49;43.18;101588.31;5102054;27;61938;-83
2022/03/09 03:26:56;;;;;;;;;61.50;45.00;;;;;12.45;43.48;101592.53;5100879;27;62128;-84
2022/03/09 03:29:21;;;;;;;;;62.25;48.25;;;;;12.45;43.39;101586.38;5101915;27;61962;-84
2022/03/09 03:31:47;;;;;;;;;63.25;47.25;;;;;12.43;43.68;101586.28;5102160;27;61901;-84
2022/03/09 03:34:12;;;;;;;;;71.00;47.50;;;;;12.43;43.70;101590.66;5102944;27;61925;-84
2022/03/09 03:36:38;;;;;;;;;63.25;41.50;;;;;12.42;44.18;101581.81;5103697;27;61942;-84
2022/03/09 03:39:03;;;;;;;;;61.50;44.50;;;;;12.39;44.35;101583.41;5101662;27;61740;-84
2022/03/09 03:41:29;;;;;;;;;64.00;45.50;;;;;12.40;44.88;101586.16;5101051;27;62322;-83
2022/03/09 03:43:54;;;;;;;;;56.00;44.25;;;;;12.40;44.81;101578.25;5101416;27;62969;-84
2022/03/09 03:46:20;;;;;;;;;38.75;24.50;;;;;12.39;44.92;101570.25;5101889;27;61922;-84
2022/03/09 03:48:45;;;;;;;;;56.75;43.75;;;;;12.39;45.11;101581.69;5103315;27;61809;-84
2022/03/09 03:51:11;;;;;;;;;56.75;44.00;;;;;12.38;44.89;101569.38;5101506;27;61727;-84
2022/03/09 03:53:36;;;;;;;;;51.75;41.75;;;;;12.36;44.69;101578.91;5102496;27;62968;-84
2022/03/09 03:56:01;;;;;;;;;55.00;42.25;;;;;12.36;44.88;101578.00;5101982;27;61730;-84
2022/03/09 03:58:27;;;;;;;;;54.75;40.25;;;;;12.34;45.28;101577.94;5102789;27;61712;-83
2022/03/09 04:00:52;;;;;;;;;56.50;42.75;;;;;12.34;45.24;101579.63;5103138;27;61727;-84
2022/03/09 04:03:18;;;;;;;;;47.75;39.25;;;;;12.33;45.16;101580.47;5102323;27;62113;-84
2022/03/09 04:05:43;;;;;;;;;44.25;37.75;;;;;12.32;45.09;101578.66;5101641;27;61956;-84
2022/03/09 04:08:09;;;;;;;;;55.50;41.25;;;;;12.31;45.71;101585.66;5101494;27;61874;-84
2022/03/09 04:10:34;;;;;;;;;55.50;41.75;;;;;12.31;46.27;101587.41;5102339;27;62036;-84
2022/03/09 04:13:03;;;;;;;;;59.50;44.25;;;;;12.27;46.11;101583.69;5102136;27;62782;-83
2022/03/09 04:15:30;;;;;;;;;48.00;37.25;;;;;12.26;46.37;101587.16;5102818;27;61775;-84
2022/03/09 04:17:55;;;;;;;;;58.00;41.00;;;;;12.23;46.07;101587.00;5103022;27;61707;-84
2022/03/09 04:20:21;;;;;;;;;42.50;37.25;;;;;12.22;46.50;101580.84;5101423;27;62168;-84
2022/03/09 04:22:46;;;;;;;;;45.00;35.50;;;;;12.20;47.14;101590.38;5100373;27;63674;-84
2022/03/09 04:25:12;;;;;;;;;48.50;36.50;;;;;12.21;47.33;101589.56;5102011;27;61918;-84
2022/03/09 04:27:38;;;;;;;;;53.50;40.25;;;;;12.20;47.90;101589.50;5101302;27;61837;-84
2022/03/09 04:30:04;;;;;;;;;45.25;38.00;;;;;12.19;47.67;101587.66;5118540;27;62120;-84
2022/03/09 04:32:32;;;;;;;;;53.50;40.25;;;;;12.20;48.08;101586.84;5100835;27;64044;-84
2022/03/09 04:34:57;;;;;;;;;45.00;38.50;;;;;12.19;48.53;101585.03;5101004;27;61968;-84
2022/03/09 04:37:23;;;;;;;;;51.00;40.50;;;;;12.19;47.62;101592.94;5104899;27;61978;-84
2022/03/09 04:39:48;;;;;;;;;43.00;36.75;;;;;12.19;47.96;101583.31;5105571;27;61875;-83
2022/03/09 04:42:14;;;;;;;;;34.00;30.25;;;;;12.20;48.18;101589.50;5105151;27;62796;-84
2022/03/09 04:44:40;;;;;;;;;38.75;32.50;;;;;12.18;48.12;101585.88;5104529;27;61858;-84
2022/03/09 04:47:05;;;;;;;;;52.25;37.25;;;;;12.17;48.39;101584.97;5104725;27;62007;-84
2022/03/09 04:49:31;;;;;;;;;57.25;37.25;;;;;12.17;48.28;101594.56;5106020;27;61624;-83
2022/03/09 04:51:56;;;;;;;;;50.25;37.75;;;;;12.17;48.41;101594.56;5105407;27;63036;-84
2022/03/09 04:54:22;;;;;;;;;45.00;31.25;;;;;12.16;48.44;101598.06;5104958;27;61810;-84
2022/03/09 04:56:47;;;;;;;;;39.75;33.25;;;;;12.16;48.41;101598.94;5103754;27;61695;-84
2022/03/09 04:59:14;;;;;;;;;41.50;34.50;;;;;12.13;48.42;101597.91;5104518;27;61841;-84
2022/03/09 05:01:40;;;;;;;;;45.00;38.00;;;;;12.12;48.35;101602.25;5104751;27;61919;-84
2022/03/09 05:04:05;;;;;;;;;46.00;33.50;;;;;12.12;48.54;101606.63;5104279;27;61993;-84
2022/03/09 05:06:30;;;;;;;;;50.75;36.25;;;;;12.11;48.33;101600.47;5105716;27;61966;-84
2022/03/09 05:08:56;;;;;;;;;49.00;34.75;;;;;12.10;48.85;101601.25;5104005;27;61842;-84
2022/03/09 05:11:22;;;;;;;;;39.75;35.25;;;;;12.09;49.14;101603.84;5104403;27;62744;-84
2022/03/09 05:13:47;;;;;;;;;31.00;24.75;;;;;12.06;49.13;101613.38;5105534;27;61789;-84
2022/03/09 05:16:14;;;;;;;;;39.50;32.75;;;;;12.07;49.15;101614.28;5104145;27;61798;-84
2022/03/09 05:18:42;;;;;;;;;51.75;40.00;;;;;12.05;49.50;101616.81;5105774;27;62000;-84
2022/03/09 05:21:09;;;;;;;;;42.00;36.50;;;;;12.04;49.73;101622.91;5104627;27;62197;-84
2022/03/09 05:23:34;;;;;;;;;45.75;38.50;;;;;12.04;49.73;101624.66;5120526;27;61807;-84
2022/03/09 05:26:00;;;;;;;;;35.25;30.00;;;;;12.02;49.54;101621.03;5103155;27;62028;-83
2022/03/09 05:28:25;;;;;;;;;31.50;29.75;;;;;12.03;50.31;101625.47;5104368;27;61739;-84
2022/03/09 05:30:51;;;;;;;;;42.75;31.00;;;;;11.99;52.10;101634.03;5103056;27;64014;-84
2022/03/09 05:33:16;;;;;;;;;37.00;33.25;;;;;11.93;51.40;101628.44;5103794;27;61952;-83
2022/03/09 05:35:42;;;;;;;;;48.75;40.25;;;;;11.96;51.31;101629.50;5105068;27;61907;-84
2022/03/09 05:38:07;;;;;;;;;55.50;40.50;;;;;11.93;51.27;101638.97;5103747;27;62043;-84
2022/03/09 05:40:33;;;;;;;;;45.25;38.75;;;;;11.93;50.93;101638.97;5102587;27;61891;-84
2022/03/09 05:42:58;;;;;;;;;58.50;44.25;;;;;11.89;51.03;101648.44;5104834;27;61883;-84
2022/03/09 05:45:24;;;;;;;;;55.00;41.00;;;;;11.84;51.27;101653.41;5103531;27;61893;-84
2022/03/09 05:47:49;;;;;;;;;57.50;45.00;;;;;11.79;50.93;101654.88;5103512;27;61750;-84
2022/03/09 05:50:16;;;;;;;;;56.75;42.00;;;;;11.73;51.47;101659.81;5102590;27;64447;-84
2022/03/09 05:52:42;;;;;;;;;61.25;45.50;;;;;11.78;51.09;101657.44;5104483;27;61811;-84
2022/03/09 05:55:08;;;;;;;;;67.75;48.75;;;;;11.78;50.78;101661.00;5104296;27;61823;-84
2022/03/09 05:57:33;;;;;;;;;65.75;45.25;;;;;11.79;50.09;101662.78;5102965;27;61970;-83
2022/03/09 06:00:01;;;;;;;;;63.33;50.33;;;;;11.80;50.06;101664.59;5102709;27;63357;-83
2022/03/09 06:02:27;;;;;;;;;67.50;48.50;;;;;11.82;50.05;101665.56;5103043;27;61905;-84
2022/03/09 06:04:53;;;;;;;;;69.75;48.50;;;;;11.85;49.63;101660.47;5104454;27;61935;-82
2022/03/09 06:07:18;;;;;;;;;64.67;48.33;;;;;11.84;49.49;101661.28;5104553;27;61781;-81
2022/03/09 06:09:44;;;;;;;;;68.00;49.00;;;;;11.85;50.04;101660.47;5119486;27;63576;-78
2022/03/09 06:12:10;;;;;;;;;64.67;49.33;;;;;11.80;50.18;101663.66;5104077;27;61902;-80
2022/03/09 06:14:35;;;;;;;;;66.67;49.67;;;;;11.80;50.25;101664.59;5104224;27;61835;-82
2022/03/09 06:17:01;;;;;;;;;68.67;47.67;;;;;11.79;50.52;101668.03;5103294;27;62136;-80
2022/03/09 06:19:27;;;;;;;;;63.00;49.33;;;;;11.82;50.16;101667.28;5103771;27;61645;-81
2022/03/09 06:21:52;;;;;;;;;62.75;48.00;;;;;11.83;50.64;101671.75;5102375;27;61833;-82
2022/03/09 06:24:18;;;;;;;;;62.00;47.25;;;;;11.85;50.85;101670.09;5104105;27;61760;-79
2022/03/09 06:26:45;;;;;;;;;59.75;45.00;;;;;11.87;50.75;101668.47;5102158;27;62863;-84
2022/03/09 06:29:11;;;;;;;;;62.75;44.25;;;;;11.91;50.42;101673.09;5102569;27;61918;-83
2022/03/09 06:31:39;;;;;;;;;63.50;44.50;;;;;11.93;50.41;101671.44;5102574;27;61889;-80
2022/03/09 06:34:04;;;;;;;;;63.00;45.50;;;;;11.95;50.59;101687.31;5104325;27;61953;-80
2022/03/09 06:36:30;;;;;;;;;55.00;44.00;;;;;11.97;50.93;101680.41;5102144;27;61755;-78
2022/03/09 06:38:56;;;;;;;;;50.50;38.50;;;;;11.98;50.57;101687.47;5101575;27;65143;-82
2022/03/09 06:41:21;;;;;;;;;57.25;46.50;;;;;12.00;51.13;101685.84;5101476;27;61942;-84
2022/03/09 06:43:47;;;;;;;;;58.75;44.25;;;;;12.01;51.02;101691.16;5102016;27;61885;-79
2022/03/09 06:46:12;;;;;;;;;57.67;43.67;;;;;12.05;50.88;101692.25;5102752;27;61761;-82
2022/03/09 06:48:38;;;;;;;;;59.00;41.00;;;;;12.06;51.03;101691.41;5103208;27;62474;-81
2022/03/09 06:51:04;;;;;;;;;58.50;45.50;;;;;12.07;51.36;101690.59;5101637;27;61921;-76
2022/03/09 06:53:30;;;;;;;;;58.00;44.00;;;;;12.11;51.23;101689.94;5102906;27;62285;-78
2022/03/09 06:55:56;;;;;;;;;56.75;38.75;;;;;12.11;52.20;101699.56;5102476;27;61793;-78
2022/03/09 06:58:21;;;;;;;;;51.25;40.50;;;;;12.14;52.05;101697.97;5099326;27;64175;-78
2022/03/09 07:00:47;;;;;;;;;52.50;37.50;;;;;12.19;51.88;101701.78;5101389;27;62029;-78
2022/03/09 07:03:12;;;;;;;;;47.25;40.75;;;;;12.24;51.99;101708.16;5101786;27;61953;-77
2022/03/09 07:05:38;;;;;;;;;54.00;40.00;;;;;12.27;52.31;101710.97;5103091;27;62118;-77
2022/03/09 07:08:04;;;;;;;;;50.75;37.75;;;;;12.35;51.61;101711.38;5101543;27;63489;-77
2022/03/09 07:10:29;;;;;;;;;60.25;45.25;;;;;12.37;52.31;101716.72;5102859;27;61813;-77
2022/03/09 07:12:55;;;;;;;;;61.50;44.00;;;;;12.47;51.80;101716.38;5103063;27;61815;-77
2022/03/09 07:15:20;;;;;;;;;56.50;42.25;;;;;12.58;51.81;101728.34;5102063;27;62153;-80
2022/03/09 07:17:48;;;;;;;;;49.50;42.25;;;;;12.72;51.62;101725.50;5102571;27;63048;-79
2022/03/09 07:20:18;;;;;;;;;59.00;45.50;;;;;12.81;51.37;101729.53;5097460;27;63183;-92
2022/03/09 07:22:44;;;;;;;;;59.00;42.75;;;;;12.93;51.26;101733.59;5091701;27;61972;-93
2022/03/09 07:25:14;;;;;;;;;41.00;36.75;;;;;13.02;51.16;101728.78;5081447;28;61788;-83
2022/03/09 07:27:49;;;;;;;;;62.75;44.75;;;;;13.09;51.49;101742.34;5079968;28;62040;-82
2022/03/09 07:30:14;;;;;;;;;62.75;43.50;;;;;13.19;50.98;101745.44;5080864;28;61941;-82
2022/03/09 07:32:40;;;;;;;;;55.75;45.00;;;;;13.29;50.71;101745.09;5098666;27;61934;-82
2022/03/09 07:35:07;;;;;;;;;56.00;43.75;;;;;13.35;50.95;101740.13;5102240;27;61937;-83
2022/03/09 07:37:32;;;;;;;;;55.50;41.00;;;;;13.43;51.08;101749.31;5100624;27;63798;-83
2022/03/09 07:40:00;;;;;;;;;54.75;42.00;;;;;13.50;50.81;101743.50;5101111;27;62132;-87
2022/03/09 07:42:26;;;;;;;;;59.00;42.50;;;;;13.58;50.97;101745.56;5100755;27;61934;-87
2022/03/09 07:44:54;;;;;;;;;53.25;44.00;;;;;13.66;51.09;101746.84;5102324;27;61683;-86
2022/03/09 07:47:23;;;;;;;;;46.25;37.50;;;;;13.69;51.13;101734.72;5093795;27;63347;-85
2022/03/09 07:50:23;;;;;;;;;44.00;36.50;;;;;13.76;50.60;101738.53;5111058;27;63219;-86
2022/03/09 07:52:49;;;;;;;;;43.50;39.50;;;;;13.86;50.70;101742.50;5097792;27;61737;-86
2022/03/09 07:55:41;;;;;;;;;56.25;41.00;;;;;14.00;50.89;101743.16;5098904;27;61994;-86
2022/03/09 07:58:10;;;;;;;;;39.75;33.50;;;;;14.15;50.98;101748.22;5098629;27;63737;-86
2022/03/09 08:00:35;;;;;;;;;42.50;39.50;;;;;14.20;51.48;101750.22;5101905;27;61877;-87
2022/03/09 08:03:01;;;;;;;;;40.75;35.25;;;;;14.34;51.35;101758.78;5101217;27;61960;-85
2022/03/09 08:05:27;;;;;;;;;53.75;39.75;;;;;14.40;51.30;101758.16;5102188;27;61758;-85
2022/03/09 08:07:52;;;;;;;;;45.25;37.75;;;;;14.51;50.94;101763.06;5100303;27;63827;-79
2022/03/09 08:10:19;;;;;;;;;50.50;37.00;;;;;14.58;50.80;101766.00;5102596;27;62080;-85
2022/03/09 08:12:45;;;;;;;;;47.75;31.75;;;;;14.66;50.97;101767.25;5104622;27;61928;-86
2022/03/09 08:15:11;;;;;;;;;36.00;35.00;;;;;14.72;51.15;101759.59;5104392;27;62059;-87
2022/03/09 08:17:36;;;;;;;;;44.75;32.00;;;;;14.81;51.20;101761.72;5102439;27;61884;-86
2022/03/09 08:20:02;;;;;;;;;46.50;34.00;;;;;14.82;51.44;101771.44;5101072;27;61782;-86
2022/03/09 08:22:28;;;;;;;;;41.00;33.00;;;;;14.82;51.61;101766.16;5085078;28;61726;-86
2022/03/09 08:24:53;;;;;;;;;30.75;30.50;;;;;14.88;51.00;101772.63;5084819;27;62029;-84
2022/03/09 08:27:19;;;;;;;;;33.25;28.00;;;;;14.95;51.14;101765.84;5082546;28;61903;-84
2022/03/09 08:29:44;;;;;;;;;34.00;24.75;;;;;15.02;51.32;101772.31;5117741;27;61940;-84
2022/03/09 08:32:10;;;;;;;;;32.25;31.25;;;;;15.14;51.17;101767.53;5083116;28;61762;-85
2022/03/09 08:34:35;;;;;;;;;35.75;31.25;;;;;15.12;51.08;101767.47;5085265;27;62198;-85
2022/03/09 08:37:01;;;;;;;;;31.75;24.50;;;;;15.20;50.96;101775.72;5102503;27;63354;-84
2022/03/09 08:39:26;;;;;;;;;25.50;23.50;;;;;15.13;52.47;101771.03;5105053;27;61789;-85
2022/03/09 08:41:52;;;;;;;;;22.50;21.00;;;;;15.22;52.05;101768.75;5103503;27;62464;-84
2022/03/09 08:44:20;;;;;;;;;23.50;21.75;;;;;15.28;51.76;101774.28;5121216;27;61969;-85
2022/03/09 08:46:47;;;;;;;;;26.50;24.25;;;;;15.39;51.70;101773.84;5103815;27;63189;-86
2022/03/09 08:49:12;;;;;;;;;34.50;27.00;;;;;15.40;51.40;101772.97;5120090;27;61906;-86
2022/03/09 08:51:38;;;;;;;;;28.00;23.25;;;;;15.37;51.73;101778.16;5102662;27;62016;-86
2022/03/09 08:54:08;;;;;;;;;22.00;18.50;;;;;15.50;51.42;101781.34;5115107;27;62238;-87
2022/03/09 08:56:34;;;;;;;;;28.75;21.25;;;;;15.65;51.27;101780.16;5081703;28;61976;-85
2022/03/09 08:58:59;;;;;;;;;30.75;26.50;;;;;15.66;51.26;101768.72;5082725;28;62244;-86
2022/03/09 09:01:25;;;;;;;;;26.50;23.00;;;;;15.67;51.16;101771.44;5083484;27;62285;-85
2022/03/09 09:03:50;;;;;;;;;29.75;26.00;;;;;15.81;51.24;101776.41;5083270;28;61888;-88
2022/03/09 09:06:16;;;;;;;;;29.50;24.25;;;;;15.86;50.82;101778.41;5083691;28;61898;-87
2022/03/09 09:08:41;;;;;;;;;30.75;19.75;;;;;15.80;51.01;101785.19;5084355;27;61877;-87
2022/03/09 09:11:07;;;;;;;;;35.50;25.00;;;;;15.80;51.25;101785.19;5096749;27;62021;-85
2022/03/09 09:13:33;;;;;;;;;28.50;23.00;;;;;15.76;51.17;101772.69;5119588;27;62212;-89
2022/03/09 09:15:58;;;;;;;;;2.25;2.00;;;;;15.75;51.06;101777.09;5102741;27;63717;-88
2022/03/09 09:18:24;;;;;;;;;29.75;19.25;;;;;15.77;51.38;101779.75;5120604;27;61718;-90
2022/03/09 09:20:50;;;;;;;;;32.00;19.75;;;;;15.77;51.24;101772.75;5104066;27;61926;-88
2022/03/09 09:23:17;;;;;;;;;24.00;23.50;;;;;15.82;51.35;101772.94;5104188;27;61878;-88
2022/03/09 09:25:42;;;;;;;;;25.25;21.00;;;;;15.89;51.23;101775.84;5101623;27;61924;-88
2022/03/09 09:28:09;;;;;;;;;24.50;20.75;;;;;16.01;51.20;101771.88;5115593;27;62042;-83
2022/03/09 09:30:34;;;;;;;;;21.25;19.00;;;;;16.06;51.24;101771.19;5083853;27;61902;-81
2022/03/09 09:33:00;;;;;;;;;27.00;20.50;;;;;16.04;51.32;101777.28;5117125;27;61943;-83
2022/03/09 09:35:26;;;;;;;;;21.25;21.25;;;;;16.03;51.48;101768.44;5087009;27;61883;-83
2022/03/09 09:37:52;;;;;;;;;22.50;19.25;;;;;16.08;51.63;101772.16;5103779;27;62514;-84
2022/03/09 09:40:17;;;;;;;;;21.25;20.50;;;;;16.14;51.10;101760.91;5103954;27;61794;-87
2022/03/09 09:43:08;;;;;;;;;17.00;15.25;;;;;16.21;51.07;101762.03;5103989;27;61874;-87
2022/03/09 09:45:39;;;;;;;;;19.00;17.25;;;;;16.30;50.92;101763.28;5115144;27;63878;-86
2022/03/09 09:48:10;;;;;;;;;18.50;15.50;;;;;16.36;50.86;101762.59;5116733;27;61903;-87
2022/03/09 09:50:38;;;;;;;;;25.50;19.00;;;;;16.36;51.07;101759.94;5082420;27;62023;-86
2022/03/09 09:53:10;;;;;;;;;22.00;20.25;;;;;16.54;50.31;101765.91;5082586;28;61834;-86
2022/03/09 09:55:52;;;;;;;;;18.75;17.00;;;;;16.63;49.96;101761.78;5082523;27;61768;-87
2022/03/09 09:58:20;;;;;;;;;20.75;18.75;;;;;16.70;50.60;101758.50;5082405;27;62170;-87
2022/03/09 10:00:51;;;;;;;;;20.75;15.75;;;;;16.81;50.19;101754.50;5082655;28;61798;-85
2022/03/09 10:03:17;;;;;;;;;17.00;11.00;;;;;16.93;49.73;101756.69;5089996;27;62127;-84
2022/03/09 10:05:43;;;;;;;;;20.00;13.75;;;;;17.01;49.92;101756.91;5103124;27;61865;-85
2022/03/09 10:08:13;;;;;;;;;18.75;15.00;;;;;17.12;49.78;101758.22;5102876;27;61819;-85
2022/03/09 10:10:54;;;;;;;;;15.25;14.50;;;;;17.28;49.26;101757.84;5100096;27;61970;-85
2022/03/09 10:13:23;;;;;;;;;12.50;12.50;;;;;17.34;49.15;101750.09;5103786;27;61877;-85
2022/03/09 10:16:20;;;;;;;;;17.75;16.00;;;;;17.38;49.08;101748.44;5102215;27;61858;-85
2022/03/09 10:18:48;;;;;;;;;11.50;10.75;;;;;17.46;49.25;101751.31;5102609;27;61994;-86
2022/03/09 10:21:20;;;;;;;;;16.00;15.50;;;;;17.30;49.39;101748.16;5097415;27;61980;-86
2022/03/09 10:24:09;;;;;;;;;20.75;12.75;;;;;17.23;49.12;101748.84;5082679;27;62028;-86
2022/03/09 10:26:34;;;;;;;;;16.50;14.50;;;;;17.13;49.57;101750.28;5081548;27;62395;-85
2022/03/09 10:29:08;;;;;;;;;16.25;13.75;;;;;17.09;49.72;101753.66;5081755;28;61891;-85
2022/03/09 10:31:42;;;;;;;;;14.00;8.75;;;;;17.06;49.80;101748.28;5099048;27;62247;-86
2022/03/09 10:34:20;;;;;;;;;15.50;13.50;;;;;16.90;49.99;101741.56;5099285;27;61826;-86
2022/03/09 10:37:04;;;;;;;;;14.75;12.75;;;;;16.90;50.23;101740.66;5082758;28;63163;-85
2022/03/09 10:39:40;;;;;;;;;17.25;14.50;;;;;17.00;50.40;101732.16;5081984;28;61896;-87
2022/03/09 10:42:29;;;;;;;;;18.50;13.75;;;;;17.10;50.01;101736.03;5081609;28;62002;-86
2022/03/09 10:44:55;;;;;;;;;15.00;11.00;;;;;17.22;50.06;101738.16;5086871;27;61815;-86
2022/03/09 10:47:31;;;;;;;;;14.75;13.50;;;;;17.28;49.86;101739.25;5101254;27;63706;-84
2022/03/09 10:50:28;;;;;;;;;12.50;11.50;;;;;17.34;49.44;101735.91;5102616;27;61987;-84
2022/03/09 10:52:59;;;;;;;;;10.25;7.25;;;;;17.26;49.58;101719.72;5092132;27;61749;-86
2022/03/09 10:55:29;;;;;;;;;12.75;11.75;;;;;17.36;49.16;101726.25;5101717;27;61823;-84
2022/03/09 10:58:16;;;;;;;;;15.25;11.00;;;;;17.64;48.78;101732.44;5100556;27;62109;-82
2022/03/09 11:00:50;;;;;;;;;21.75;13.00;;;;;17.93;48.61;101726.28;5101078;27;61779;-86
2022/03/09 11:03:26;;;;;;;;;8.50;8.50;;;;;18.25;47.59;101733.34;5118178;27;61804;-84
2022/03/09 11:05:56;;;;;;;;;14.75;12.25;;;;;18.71;47.05;101727.53;5118805;27;61745;-86
2022/03/09 11:08:29;;;;;;;;;17.50;11.00;;;;;19.02;46.21;101730.09;5100886;27;62270;-85
2022/03/09 11:10:58;;;;;;;;;10.00;10.00;;;;;19.15;45.78;101718.88;5117961;27;61934;-83
2022/03/09 11:13:27;;;;;;;;;13.25;10.50;;;;;19.06;46.06;101734.63;5103564;27;61878;-85